sensor_id;sensor_type;location;lat;lon;timestamp;pressure;altitude;pressure_sealevel;temperature;humidity
29215;BME280;16252;49.816;7.964;2023-08-24T00:00:37;100187.09;;;24.75;45.15
29215;BME280;16252;49.816;7.964;2023-08-24T00:03:02;100187.47;;;24.65;44.97
29215;BME280;16252;49.816;7.964;2023-08-24T00:05:28;100168.09;;;24.60;45.12
29215;BME280;16252;49.816;7.964;2023-08-24T00:07:53;100123.78;;;24.37;45.29
29215;BME280;16252;49.816;7.964;2023-08-24T00:10:18;100184.31;;;24.62;45.37
29215;BME280;16252;49.816;7.964;2023-08-24T00:12:44;100179.84;;;24.54;45.40
29215;BME280;16252;49.816;7.964;2023-08-24T00:15:09;100183.38;;;24.48;45.30
29215;BME280;16252;49.816;7.964;2023-08-24T00:17:35;100201.06;;;24.46;45.44
29215;BME280;16252;49.816;7.964;2023-08-24T00:20:01;100225.72;;;24.52;45.58
29215;BME280;16252;49.816;7.964;2023-08-24T00:22:29;100222.28;;;24.43;45.68
29215;BME280;16252;49.816;7.964;2023-08-24T00:24:55;100127.50;;;23.81;45.69
29215;BME280;16252;49.816;7.964;2023-08-24T00:27:20;100199.41;;;24.16;45.96
29215;BME280;16252;49.816;7.964;2023-08-24T00:29:45;100243.38;;;24.50;45.72
29215;BME280;16252;49.816;7.964;2023-08-24T00:32:10;100201.72;;;24.19;45.73
29215;BME280;16252;49.816;7.964;2023-08-24T00:34:36;100233.59;;;24.40;45.87
29215;BME280;16252;49.816;7.964;2023-08-24T00:37:01;100214.63;;;24.32;45.91
29215;BME280;16252;49.816;7.964;2023-08-24T00:39:26;100224.81;;;24.45;45.74
29215;BME280;16252;49.816;7.964;2023-08-24T00:41:52;100227.28;;;24.40;45.93
29215;BME280;16252;49.816;7.964;2023-08-24T00:44:17;100190.97;;;24.18;45.94
29215;BME280;16252;49.816;7.964;2023-08-24T00:46:42;100171.38;;;24.08;46.20
29215;BME280;16252;49.816;7.964;2023-08-24T00:51:35;100204.09;;;24.29;46.01
29215;BME280;16252;49.816;7.964;2023-08-24T00:54:01;100191.22;;;24.23;46.28
29215;BME280;16252;49.816;7.964;2023-08-24T00:56:26;100195.06;;;24.29;46.18
29215;BME280;16252;49.816;7.964;2023-08-24T00:58:52;100193.53;;;24.19;46.51
29215;BME280;16252;49.816;7.964;2023-08-24T01:01:19;100174.31;;;24.06;46.26
29215;BME280;16252;49.816;7.964;2023-08-24T01:03:45;100212.06;;;24.24;46.56
29215;BME280;16252;49.816;7.964;2023-08-24T01:06:10;100192.22;;;24.09;46.46
29215;BME280;16252;49.816;7.964;2023-08-24T01:08:35;100173.44;;;23.99;46.35
29215;BME280;16252;49.816;7.964;2023-08-24T01:17:01;100180.31;;;23.88;46.49
29215;BME280;16252;49.816;7.964;2023-08-24T01:19:38;100213.25;;;24.15;46.46
29215;BME280;16252;49.816;7.964;2023-08-24T01:25:15;100183.72;;;23.97;46.38
29215;BME280;16252;49.816;7.964;2023-08-24T01:27:42;100213.25;;;24.08;46.66
29215;BME280;16252;49.816;7.964;2023-08-24T01:30:08;100199.69;;;24.00;46.94
29215;BME280;16252;49.816;7.964;2023-08-24T01:32:34;100200.34;;;24.02;47.00
29215;BME280;16252;49.816;7.964;2023-08-24T01:35:08;100199.94;;;24.05;47.03
29215;BME280;16252;49.816;7.964;2023-08-24T01:37:34;100163.44;;;23.85;46.94
29215;BME280;16252;49.816;7.964;2023-08-24T01:40:08;100197.69;;;24.09;46.60
29215;BME280;16252;49.816;7.964;2023-08-24T01:42:47;100183.72;;;23.97;46.53
29215;BME280;16252;49.816;7.964;2023-08-24T01:45:14;100180.09;;;23.90;46.75
29215;BME280;16252;49.816;7.964;2023-08-24T01:47:42;100174.25;;;23.93;46.92
29215;BME280;16252;49.816;7.964;2023-08-24T01:50:08;100165.34;;;23.84;47.22
29215;BME280;16252;49.816;7.964;2023-08-24T01:52:34;100170.81;;;23.84;46.89
29215;BME280;16252;49.816;7.964;2023-08-24T01:55:00;100150.59;;;23.78;47.16
29215;BME280;16252;49.816;7.964;2023-08-24T01:57:25;100155.47;;;23.83;47.25
29215;BME280;16252;49.816;7.964;2023-08-24T01:59:50;100145.31;;;23.77;47.14
29215;BME280;16252;49.816;7.964;2023-08-24T02:02:16;100140.41;;;23.66;47.14
29215;BME280;16252;49.816;7.964;2023-08-24T02:04:42;100168.66;;;23.79;47.22
29215;BME280;16252;49.816;7.964;2023-08-24T02:07:07;100153.22;;;23.65;47.70
29215;BME280;16252;49.816;7.964;2023-08-24T02:09:33;100148.78;;;23.64;47.50
29215;BME280;16252;49.816;7.964;2023-08-24T02:11:58;100149.50;;;23.73;47.47
29215;BME280;16252;49.816;7.964;2023-08-24T02:14:23;100131.38;;;23.65;47.53
29215;BME280;16252;49.816;7.964;2023-08-24T02:16:49;100112.59;;;23.55;47.46
29215;BME280;16252;49.816;7.964;2023-08-24T02:19:14;100144.38;;;23.70;47.23
29215;BME280;16252;49.816;7.964;2023-08-24T02:21:39;100131.53;;;23.64;47.69
29215;BME280;16252;49.816;7.964;2023-08-24T02:24:05;100126.91;;;23.64;47.46
29215;BME280;16252;49.816;7.964;2023-08-24T02:26:30;100148.06;;;23.77;47.63
29215;BME280;16252;49.816;7.964;2023-08-24T02:28:56;100152.09;;;23.81;47.38
29215;BME280;16252;49.816;7.964;2023-08-24T02:31:22;100148.28;;;23.82;47.73
29215;BME280;16252;49.816;7.964;2023-08-24T02:33:47;100114.34;;;23.70;47.75
29215;BME280;16252;49.816;7.964;2023-08-24T02:36:14;100122.81;;;23.75;47.83
29215;BME280;16252;49.816;7.964;2023-08-24T02:38:39;100107.03;;;23.70;47.93
29215;BME280;16252;49.816;7.964;2023-08-24T02:41:06;100111.28;;;23.73;47.93
29215;BME280;16252;49.816;7.964;2023-08-24T02:43:32;100101.31;;;23.65;48.02
29215;BME280;16252;49.816;7.964;2023-08-24T02:46:06;100117.00;;;23.85;47.65
29215;BME280;16252;49.816;7.964;2023-08-24T02:48:32;100109.38;;;23.73;47.89
29215;BME280;16252;49.816;7.964;2023-08-24T02:50:58;100103.69;;;23.75;47.90
29215;BME280;16252;49.816;7.964;2023-08-24T02:53:24;100083.88;;;23.66;47.85
29215;BME280;16252;49.816;7.964;2023-08-24T02:55:49;100082.81;;;23.67;47.90
29215;BME280;16252;49.816;7.964;2023-08-24T02:58:15;100085.13;;;23.64;47.85
29215;BME280;16252;49.816;7.964;2023-08-24T03:00:40;100084.22;;;23.56;48.15
29215;BME280;16252;49.816;7.964;2023-08-24T03:03:06;100085.47;;;23.54;48.19
29215;BME280;16252;49.816;7.964;2023-08-24T03:05:31;100064.13;;;23.36;48.13
29215;BME280;16252;49.816;7.964;2023-08-24T03:07:57;100056.13;;;23.34;48.06
29215;BME280;16252;49.816;7.964;2023-08-24T03:10:23;100052.19;;;23.37;48.13
29215;BME280;16252;49.816;7.964;2023-08-24T03:12:48;100022.25;;;23.22;48.11
29215;BME280;16252;49.816;7.964;2023-08-24T03:15:13;100047.34;;;23.39;48.16
29215;BME280;16252;49.816;7.964;2023-08-24T03:17:39;100066.75;;;23.51;48.42
29215;BME280;16252;49.816;7.964;2023-08-24T03:20:04;100057.03;;;23.42;48.28
29215;BME280;16252;49.816;7.964;2023-08-24T03:22:30;100067.41;;;23.53;48.16
29215;BME280;16252;49.816;7.964;2023-08-24T03:24:55;100026.09;;;23.34;48.40
29215;BME280;16252;49.816;7.964;2023-08-24T03:27:20;100059.88;;;23.55;48.23
29215;BME280;16252;49.816;7.964;2023-08-24T03:29:46;100023.13;;;23.29;48.49
29215;BME280;16252;49.816;7.964;2023-08-24T03:32:11;100050.78;;;23.48;48.79
29215;BME280;16252;49.816;7.964;2023-08-24T03:34:36;100063.44;;;23.62;48.67
29215;BME280;16252;49.816;7.964;2023-08-24T03:37:01;100017.97;;;23.41;48.88
29215;BME280;16252;49.816;7.964;2023-08-24T03:39:27;100035.47;;;23.53;49.09
29215;BME280;16252;49.816;7.964;2023-08-24T03:41:52;100055.31;;;23.69;48.52
29215;BME280;16252;49.816;7.964;2023-08-24T03:44:18;100045.59;;;23.59;48.63
29215;BME280;16252;49.816;7.964;2023-08-24T03:46:43;100038.03;;;23.55;48.75
29215;BME280;16252;49.816;7.964;2023-08-24T03:49:08;100059.69;;;23.63;48.91
29215;BME280;16252;49.816;7.964;2023-08-24T03:51:33;100034.59;;;23.46;49.04
29215;BME280;16252;49.816;7.964;2023-08-24T03:53:59;100049.53;;;23.50;49.22
29215;BME280;16252;49.816;7.964;2023-08-24T03:56:24;100015.81;;;23.36;49.49
29215;BME280;16252;49.816;7.964;2023-08-24T03:58:50;100041.59;;;23.55;49.62
29215;BME280;16252;49.816;7.964;2023-08-24T04:01:15;100050.03;;;23.61;49.85
29215;BME280;16252;49.816;7.964;2023-08-24T04:03:40;100023.06;;;23.51;49.91
29215;BME280;16252;49.816;7.964;2023-08-24T04:06:05;100013.56;;;23.47;50.06
29215;BME280;16252;49.816;7.964;2023-08-24T04:08:31;100041.00;;;23.67;49.98
29215;BME280;16252;49.816;7.964;2023-08-24T04:10:56;100016.31;;;23.47;49.92
29215;BME280;16252;49.816;7.964;2023-08-24T04:13:21;100034.88;;;23.58;50.15
29215;BME280;16252;49.816;7.964;2023-08-24T04:15:47;100034.00;;;23.51;49.82
29215;BME280;16252;49.816;7.964;2023-08-24T04:18:12;100052.34;;;23.64;50.33
29215;BME280;16252;49.816;7.964;2023-08-24T04:20:37;100029.59;;;23.50;50.22
29215;BME280;16252;49.816;7.964;2023-08-24T04:23:03;100011.84;;;23.39;50.33
29215;BME280;16252;49.816;7.964;2023-08-24T04:25:28;100036.31;;;23.54;50.11
29215;BME280;16252;49.816;7.964;2023-08-24T04:27:54;100041.75;;;23.47;50.49
29215;BME280;16252;49.816;7.964;2023-08-24T04:30:20;100056.72;;;23.58;50.88
29215;BME280;16252;49.816;7.964;2023-08-24T04:32:46;100063.44;;;23.55;50.93
29215;BME280;16252;49.816;7.964;2023-08-24T04:35:12;100037.06;;;23.41;50.58
29215;BME280;16252;49.816;7.964;2023-08-24T04:37:37;100065.69;;;23.52;50.82
29215;BME280;16252;49.816;7.964;2023-08-24T04:40:03;100091.38;;;23.57;50.72
29215;BME280;16252;49.816;7.964;2023-08-24T04:42:29;100101.00;;;23.53;50.58
29215;BME280;16252;49.816;7.964;2023-08-24T04:44:54;100115.91;;;23.51;50.59
29215;BME280;16252;49.816;7.964;2023-08-24T04:47:20;100147.63;;;23.52;50.61
29215;BME280;16252;49.816;7.964;2023-08-24T04:49:45;100166.13;;;23.50;50.75
29215;BME280;16252;49.816;7.964;2023-08-24T04:52:10;100195.75;;;23.53;50.91
29215;BME280;16252;49.816;7.964;2023-08-24T04:54:35;100181.59;;;23.43;50.81
29215;BME280;16252;49.816;7.964;2023-08-24T04:57:01;100196.34;;;23.48;51.21
29215;BME280;16252;49.816;7.964;2023-08-24T04:59:26;100216.53;;;23.54;51.04
29215;BME280;16252;49.816;7.964;2023-08-24T05:01:51;100227.03;;;23.50;50.97
29215;BME280;16252;49.816;7.964;2023-08-24T05:04:16;100228.72;;;23.51;50.91
29215;BME280;16252;49.816;7.964;2023-08-24T05:06:42;100235.88;;;23.52;51.26
29215;BME280;16252;49.816;7.964;2023-08-24T05:09:07;100242.22;;;23.59;50.75
29215;BME280;16252;49.816;7.964;2023-08-24T05:11:33;100245.56;;;23.55;50.87
29215;BME280;16252;49.816;7.964;2023-08-24T05:13:58;100232.09;;;23.53;50.58
29215;BME280;16252;49.816;7.964;2023-08-24T05:16:24;100222.91;;;23.61;50.38
29215;BME280;16252;49.816;7.964;2023-08-24T05:18:49;100219.94;;;23.56;50.34
29215;BME280;16252;49.816;7.964;2023-08-24T05:21:14;100222.72;;;23.63;50.38
29215;BME280;16252;49.816;7.964;2023-08-24T05:23:40;100228.81;;;23.65;50.53
29215;BME280;16252;49.816;7.964;2023-08-24T05:26:05;100221.50;;;23.65;50.25
29215;BME280;16252;49.816;7.964;2023-08-24T05:28:31;100217.72;;;23.66;50.67
29215;BME280;16252;49.816;7.964;2023-08-24T05:30:57;100198.09;;;23.56;50.31
29215;BME280;16252;49.816;7.964;2023-08-24T05:33:24;100238.69;;;23.81;50.61
29215;BME280;16252;49.816;7.964;2023-08-24T05:35:50;100232.56;;;23.78;50.94
29215;BME280;16252;49.816;7.964;2023-08-24T05:38:16;100235.28;;;23.78;50.90
29215;BME280;16252;49.816;7.964;2023-08-24T05:40:42;100194.63;;;23.69;50.57
29215;BME280;16252;49.816;7.964;2023-08-24T05:43:09;100188.50;;;23.67;50.54
29215;BME280;16252;49.816;7.964;2023-08-24T05:45:34;100218.56;;;23.88;50.68
29215;BME280;16252;49.816;7.964;2023-08-24T05:48:00;100212.84;;;23.83;50.96
29215;BME280;16252;49.816;7.964;2023-08-24T05:50:25;100186.03;;;23.72;50.80
29215;BME280;16252;49.816;7.964;2023-08-24T05:52:50;100213.50;;;23.85;51.07
29215;BME280;16252;49.816;7.964;2023-08-24T05:55:15;100237.53;;;23.96;51.12
29215;BME280;16252;49.816;7.964;2023-08-24T05:57:41;100207.38;;;23.83;51.14
29215;BME280;16252;49.816;7.964;2023-08-24T06:00:06;100177.25;;;23.76;51.28
29215;BME280;16252;49.816;7.964;2023-08-24T06:02:35;100173.19;;;23.94;51.31
29215;BME280;16252;49.816;7.964;2023-08-24T06:05:00;100136.00;;;23.99;51.31
29215;BME280;16252;49.816;7.964;2023-08-24T06:07:26;100054.56;;;23.82;51.56
29215;BME280;16252;49.816;7.964;2023-08-24T06:09:51;100026.47;;;23.94;51.56
29215;BME280;16252;49.816;7.964;2023-08-24T06:12:16;100052.06;;;23.87;51.75
29215;BME280;16252;49.816;7.964;2023-08-24T06:14:41;100101.19;;;23.80;51.85
29215;BME280;16252;49.816;7.964;2023-08-24T06:17:07;100123.88;;;23.74;51.65
29215;BME280;16252;49.816;7.964;2023-08-24T06:19:32;100138.38;;;23.74;51.83
29215;BME280;16252;49.816;7.964;2023-08-24T06:21:57;100132.06;;;23.74;51.84
29215;BME280;16252;49.816;7.964;2023-08-24T06:24:22;100125.56;;;23.75;52.40
29215;BME280;16252;49.816;7.964;2023-08-24T06:26:48;100096.28;;;23.69;52.47
29215;BME280;16252;49.816;7.964;2023-08-24T06:29:13;100080.31;;;23.66;53.05
29215;BME280;16252;49.816;7.964;2023-08-24T06:31:38;100119.31;;;23.81;52.82
29215;BME280;16252;49.816;7.964;2023-08-24T06:34:03;100137.97;;;23.77;52.68
29215;BME280;16252;49.816;7.964;2023-08-24T06:36:29;100135.69;;;23.81;53.36
29215;BME280;16252;49.816;7.964;2023-08-24T06:38:55;100113.50;;;23.69;53.82
29215;BME280;16252;49.816;7.964;2023-08-24T06:41:20;100148.34;;;23.89;53.07
29215;BME280;16252;49.816;7.964;2023-08-24T06:43:45;100123.41;;;23.70;53.49
29215;BME280;16252;49.816;7.964;2023-08-24T06:46:10;100144.31;;;23.85;53.83
29215;BME280;16252;49.816;7.964;2023-08-24T06:48:36;100149.00;;;23.91;53.76
29215;BME280;16252;49.816;7.964;2023-08-24T06:51:02;100135.28;;;23.84;53.56
29215;BME280;16252;49.816;7.964;2023-08-24T06:53:28;100147.16;;;23.98;53.56
29215;BME280;16252;49.816;7.964;2023-08-24T06:55:57;100156.88;;;24.07;53.75
29215;BME280;16252;49.816;7.964;2023-08-24T06:58:22;100154.78;;;24.09;53.79
29215;BME280;16252;49.816;7.964;2023-08-24T07:00:48;100140.03;;;24.04;53.84
29215;BME280;16252;49.816;7.964;2023-08-24T07:03:16;100154.78;;;24.09;53.85
29215;BME280;16252;49.816;7.964;2023-08-24T07:05:42;100166.84;;;24.21;53.65
29215;BME280;16252;49.816;7.964;2023-08-24T07:08:07;100162.03;;;24.23;53.45
29215;BME280;16252;49.816;7.964;2023-08-24T07:10:32;100136.69;;;24.08;53.89
29215;BME280;16252;49.816;7.964;2023-08-24T07:12:58;100113.66;;;23.89;53.40
29215;BME280;16252;49.816;7.964;2023-08-24T07:15:23;100159.66;;;24.20;53.42
29215;BME280;16252;49.816;7.964;2023-08-24T07:17:48;100171.72;;;24.33;53.70
29215;BME280;16252;49.816;7.964;2023-08-24T07:20:13;100135.88;;;24.14;53.98
29215;BME280;16252;49.816;7.964;2023-08-24T07:22:39;100170.28;;;24.37;54.35
29215;BME280;16252;49.816;7.964;2023-08-24T07:25:05;100162.47;;;24.34;53.81
29215;BME280;16252;49.816;7.964;2023-08-24T07:27:34;100143.06;;;24.22;53.76
29215;BME280;16252;49.816;7.964;2023-08-24T07:30:00;100136.13;;;24.19;53.89
29215;BME280;16252;49.816;7.964;2023-08-24T07:32:26;100135.94;;;24.28;54.02
29215;BME280;16252;49.816;7.964;2023-08-24T07:34:52;100100.53;;;24.13;54.11
29215;BME280;16252;49.816;7.964;2023-08-24T07:37:17;100108.59;;;24.28;54.09
29215;BME280;16252;49.816;7.964;2023-08-24T07:39:42;100014.31;;;24.04;53.70
29215;BME280;16252;49.816;7.964;2023-08-24T07:42:07;99998.84;;;24.31;54.27
29215;BME280;16252;49.816;7.964;2023-08-24T07:44:33;99928.16;;;24.14;54.38
29215;BME280;16252;49.816;7.964;2023-08-24T07:46:58;99934.88;;;24.25;54.14
29215;BME280;16252;49.816;7.964;2023-08-24T07:49:23;99845.88;;;23.76;54.39
29215;BME280;16252;49.816;7.964;2023-08-24T07:51:49;99804.41;;;23.46;54.33
29215;BME280;16252;49.816;7.964;2023-08-24T07:54:14;99904.78;;;24.05;54.51
29215;BME280;16252;49.816;7.964;2023-08-24T07:56:39;99908.78;;;23.96;54.62
29215;BME280;16252;49.816;7.964;2023-08-24T07:59:05;99934.41;;;23.95;54.06
29215;BME280;16252;49.816;7.964;2023-08-24T08:01:30;99915.56;;;23.58;54.81
29215;BME280;16252;49.816;7.964;2023-08-24T08:03:55;100001.44;;;23.91;55.51
29215;BME280;16252;49.816;7.964;2023-08-24T08:06:21;99948.56;;;23.64;55.29
29215;BME280;16252;49.816;7.964;2023-08-24T08:08:47;99989.88;;;23.89;55.45
29215;BME280;16252;49.816;7.964;2023-08-24T08:11:12;100002.94;;;23.93;55.10
29215;BME280;16252;49.816;7.964;2023-08-24T08:13:37;99997.25;;;23.88;55.81
29215;BME280;16252;49.816;7.964;2023-08-24T08:16:04;100031.19;;;24.14;55.72
29215;BME280;16252;49.816;7.964;2023-08-24T08:18:30;100028.06;;;24.23;55.45
29215;BME280;16252;49.816;7.964;2023-08-24T08:20:56;100018.38;;;24.28;55.55
29215;BME280;16252;49.816;7.964;2023-08-24T08:23:22;100004.69;;;24.14;55.20
29215;BME280;16252;49.816;7.964;2023-08-24T08:25:47;100040.16;;;24.49;55.38
29215;BME280;16252;49.816;7.964;2023-08-24T08:28:12;100031.75;;;24.57;55.77
29215;BME280;16252;49.816;7.964;2023-08-24T08:30:38;99986.91;;;24.45;55.71
29215;BME280;16252;49.816;7.964;2023-08-24T08:33:03;100013.44;;;24.64;55.54
29215;BME280;16252;49.816;7.964;2023-08-24T08:35:28;100021.03;;;24.82;54.67
29215;BME280;16252;49.816;7.964;2023-08-24T08:37:53;99992.41;;;24.72;55.17
29215;BME280;16252;49.816;7.964;2023-08-24T08:40:19;100017.66;;;25.14;55.46
29215;BME280;16252;49.816;7.964;2023-08-24T08:42:44;99960.00;;;25.02;55.53
29215;BME280;16252;49.816;7.964;2023-08-24T08:45:11;99993.84;;;25.41;54.56
29215;BME280;16252;49.816;7.964;2023-08-24T08:47:37;99985.56;;;25.61;54.57
29215;BME280;16252;49.816;7.964;2023-08-24T08:50:02;99975.19;;;25.76;54.87
29215;BME280;16252;49.816;7.964;2023-08-24T08:52:29;99970.94;;;25.93;54.31
29215;BME280;16252;49.816;7.964;2023-08-24T08:54:54;99972.31;;;26.09;54.21
29215;BME280;16252;49.816;7.964;2023-08-24T08:57:21;99987.19;;;26.27;53.23
29215;BME280;16252;49.816;7.964;2023-08-24T08:59:48;99990.00;;;26.52;52.87
29215;BME280;16252;49.816;7.964;2023-08-24T09:02:16;99955.81;;;26.54;52.69
29215;BME280;16252;49.816;7.964;2023-08-24T09:04:44;100003.38;;;27.23;52.61
29215;BME280;16252;49.816;7.964;2023-08-24T09:07:10;99979.06;;;27.64;52.51
29215;BME280;16252;49.816;7.964;2023-08-24T09:09:38;99948.34;;;28.04;51.99
29215;BME280;16252;49.816;7.964;2023-08-24T09:12:05;99939.72;;;28.42;50.48
29215;BME280;16252;49.816;7.964;2023-08-24T09:14:30;99936.09;;;28.84;49.35
29215;BME280;16252;49.816;7.964;2023-08-24T09:16:56;99955.28;;;29.26;48.74
29215;BME280;16252;49.816;7.964;2023-08-24T09:19:28;99964.00;;;29.58;48.21
29215;BME280;16252;49.816;7.964;2023-08-24T09:21:56;99889.72;;;29.39;47.64
29215;BME280;16252;49.816;7.964;2023-08-24T09:24:32;99896.16;;;29.57;47.36
29215;BME280;16252;49.816;7.964;2023-08-24T09:26:58;99962.78;;;30.06;46.39
29215;BME280;16252;49.816;7.964;2023-08-24T09:29:23;99944.09;;;30.08;46.15
29215;BME280;16252;49.816;7.964;2023-08-24T09:31:50;99940.09;;;30.16;46.35
29215;BME280;16252;49.816;7.964;2023-08-24T09:34:19;99931.22;;;30.14;46.18
29215;BME280;16252;49.816;7.964;2023-08-24T09:36:45;99928.66;;;30.41;47.10
29215;BME280;16252;49.816;7.964;2023-08-24T09:39:10;99911.25;;;30.23;46.44
29215;BME280;16252;49.816;7.964;2023-08-24T09:41:41;99904.25;;;30.33;46.40
29215;BME280;16252;49.816;7.964;2023-08-24T09:44:07;99922.41;;;30.45;45.85
29215;BME280;16252;49.816;7.964;2023-08-24T09:46:37;99920.91;;;30.55;46.14
29215;BME280;16252;49.816;7.964;2023-08-24T09:49:05;99865.53;;;30.28;46.20
29215;BME280;16252;49.816;7.964;2023-08-24T09:51:32;99906.44;;;30.64;45.71
29215;BME280;16252;49.816;7.964;2023-08-24T09:53:58;99837.09;;;30.27;45.15
29215;BME280;16252;49.816;7.964;2023-08-24T09:56:28;99836.88;;;30.29;44.74
29215;BME280;16252;49.816;7.964;2023-08-24T09:58:54;99780.94;;;29.88;44.41
29215;BME280;16252;49.816;7.964;2023-08-24T10:01:20;99894.22;;;30.60;44.39
29215;BME280;16252;49.816;7.964;2023-08-24T10:03:50;99898.75;;;30.66;43.87
29215;BME280;16252;49.816;7.964;2023-08-24T10:06:19;99898.91;;;30.60;44.16
29215;BME280;16252;49.816;7.964;2023-08-24T10:08:55;99909.97;;;30.77;44.09
29215;BME280;16252;49.816;7.964;2023-08-24T10:11:26;99823.91;;;30.29;43.71
29215;BME280;16252;49.816;7.964;2023-08-24T10:13:57;99889.19;;;30.91;44.60
29215;BME280;16252;49.816;7.964;2023-08-24T10:16:24;99766.09;;;30.06;44.45
29215;BME280;16252;49.816;7.964;2023-08-24T10:18:49;99849.72;;;30.57;44.47
29215;BME280;16252;49.816;7.964;2023-08-24T10:21:17;99865.63;;;30.66;44.40
29215;BME280;16252;49.816;7.964;2023-08-24T10:23:45;99862.34;;;30.70;43.51
29215;BME280;16252;49.816;7.964;2023-08-24T10:26:12;99848.78;;;30.68;44.06
29215;BME280;16252;49.816;7.964;2023-08-24T10:28:38;99868.84;;;30.80;43.78
29215;BME280;16252;49.816;7.964;2023-08-24T10:31:04;99864.16;;;30.81;43.66
29215;BME280;16252;49.816;7.964;2023-08-24T10:33:30;99841.03;;;30.82;43.75
29215;BME280;16252;49.816;7.964;2023-08-24T10:35:56;99754.16;;;30.34;43.47
29215;BME280;16252;49.816;7.964;2023-08-24T10:38:29;99847.34;;;30.99;43.26
29215;BME280;16252;49.816;7.964;2023-08-24T10:41:02;99846.47;;;30.99;43.54
29215;BME280;16252;49.816;7.964;2023-08-24T10:43:36;99848.47;;;31.03;43.33
29215;BME280;16252;49.816;7.964;2023-08-24T10:46:02;99838.13;;;30.94;43.38
29215;BME280;16252;49.816;7.964;2023-08-24T10:53:44;99861.66;;;31.18;42.68
29215;BME280;16252;49.816;7.964;2023-08-24T10:56:10;99845.09;;;31.18;42.77
29215;BME280;16252;49.816;7.964;2023-08-24T10:58:37;99819.31;;;31.13;42.69
29215;BME280;16252;49.816;7.964;2023-08-24T11:01:02;99821.63;;;31.21;42.24
29215;BME280;16252;49.816;7.964;2023-08-24T11:03:31;99774.28;;;30.90;42.75
29215;BME280;16252;49.816;7.964;2023-08-24T11:05:56;99845.94;;;31.63;43.31
29215;BME280;16252;49.816;7.964;2023-08-24T11:08:45;99730.34;;;30.88;42.69
29215;BME280;16252;49.816;7.964;2023-08-24T11:11:23;99782.75;;;31.27;42.23
29215;BME280;16252;49.816;7.964;2023-08-24T11:14:14;99826.31;;;31.64;42.60
29215;BME280;16252;49.816;7.964;2023-08-24T11:16:48;99780.06;;;31.33;42.04
29215;BME280;16252;49.816;7.964;2023-08-24T11:19:15;99784.63;;;31.44;42.18
29215;BME280;16252;49.816;7.964;2023-08-24T11:21:45;99793.34;;;31.58;42.11
29215;BME280;16252;49.816;7.964;2023-08-24T11:24:13;99746.84;;;31.27;41.67
29215;BME280;16252;49.816;7.964;2023-08-24T11:26:43;99785.84;;;31.53;41.97
29215;BME280;16252;49.816;7.964;2023-08-24T11:29:08;99788.06;;;31.56;41.93
29215;BME280;16252;49.816;7.964;2023-08-24T11:31:35;99775.91;;;31.57;41.71
29215;BME280;16252;49.816;7.964;2023-08-24T11:34:00;99770.31;;;31.52;41.68
29215;BME280;16252;49.816;7.964;2023-08-24T11:36:26;99767.50;;;31.47;41.48
29215;BME280;16252;49.816;7.964;2023-08-24T11:38:55;99768.84;;;31.44;41.72
29215;BME280;16252;49.816;7.964;2023-08-24T11:41:21;99779.09;;;31.44;41.23
29215;BME280;16252;49.816;7.964;2023-08-24T11:43:47;99728.63;;;31.04;41.66
29215;BME280;16252;49.816;7.964;2023-08-24T11:46:15;99762.59;;;31.32;41.21
29215;BME280;16252;49.816;7.964;2023-08-24T11:48:41;99770.34;;;31.30;41.68
29215;BME280;16252;49.816;7.964;2023-08-24T11:51:11;99776.03;;;31.40;41.54
29215;BME280;16252;49.816;7.964;2023-08-24T11:53:46;99687.56;;;30.91;41.70
29215;BME280;16252;49.816;7.964;2023-08-24T11:56:13;99762.59;;;31.32;41.82
29215;BME280;16252;49.816;7.964;2023-08-24T12:01:05;99731.75;;;31.13;41.56
29215;BME280;16252;49.816;7.964;2023-08-24T12:03:31;99620.47;;;30.47;41.84
29215;BME280;16252;49.816;7.964;2023-08-24T12:06:00;99736.84;;;31.26;42.16
29215;BME280;16252;49.816;7.964;2023-08-24T12:08:26;99716.50;;;31.10;41.62
29215;BME280;16252;49.816;7.964;2023-08-24T12:10:51;99730.63;;;31.14;41.70
29215;BME280;16252;49.816;7.964;2023-08-24T12:13:17;99687.50;;;30.86;41.88
29215;BME280;16252;49.816;7.964;2023-08-24T12:15:42;99719.47;;;31.04;41.54
29215;BME280;16252;49.816;7.964;2023-08-24T12:18:09;99655.97;;;30.60;41.68
29215;BME280;16252;49.816;7.964;2023-08-24T12:20:35;99732.78;;;31.07;41.83
29215;BME280;16252;49.816;7.964;2023-08-24T12:23:01;99727.25;;;31.07;41.85
29215;BME280;16252;49.816;7.964;2023-08-24T12:25:26;99712.47;;;30.96;42.33
29215;BME280;16252;49.816;7.964;2023-08-24T12:27:52;99629.31;;;30.49;42.11
29215;BME280;16252;49.816;7.964;2023-08-24T12:30:19;99715.22;;;30.96;42.19
29215;BME280;16252;49.816;7.964;2023-08-24T12:32:46;99621.19;;;30.37;42.10
29215;BME280;16252;49.816;7.964;2023-08-24T12:35:14;99703.88;;;30.93;42.40
29215;BME280;16252;49.816;7.964;2023-08-24T12:37:39;99683.94;;;30.68;42.38
29215;BME280;16252;49.816;7.964;2023-08-24T12:40:07;99633.22;;;30.31;42.37
29215;BME280;16252;49.816;7.964;2023-08-24T12:42:33;99731.22;;;30.94;42.40
29215;BME280;16252;49.816;7.964;2023-08-24T12:44:58;99733.44;;;30.92;42.19
29215;BME280;16252;49.816;7.964;2023-08-24T12:47:23;99754.56;;;31.03;42.06
29215;BME280;16252;49.816;7.964;2023-08-24T12:49:49;99696.97;;;30.73;42.08
29215;BME280;16252;49.816;7.964;2023-08-24T12:52:16;99748.72;;;31.00;42.10
29215;BME280;16252;49.816;7.964;2023-08-24T12:54:42;99725.63;;;30.89;42.13
29215;BME280;16252;49.816;7.964;2023-08-24T12:57:07;99708.38;;;30.77;42.12
29215;BME280;16252;49.816;7.964;2023-08-24T12:59:33;99723.81;;;30.78;41.74
29215;BME280;16252;49.816;7.964;2023-08-24T13:01:58;99737.06;;;30.76;42.05
29215;BME280;16252;49.816;7.964;2023-08-24T13:04:23;99754.50;;;30.81;42.03
29215;BME280;16252;49.816;7.964;2023-08-24T13:06:49;99756.22;;;30.82;42.17